createdAt,value
2023-02-04T00:00:06.308Z,11.2
2023-02-04T00:01:46.506Z,7.6
2023-02-04T00:03:26.770Z,7.6
2023-02-04T00:05:07.096Z,7.6
2023-02-04T00:06:47.335Z,7.6
2023-02-04T00:08:27.591Z,7.6
2023-02-04T00:10:07.857Z,7.6
2023-02-04T00:11:48.058Z,6.7
2023-02-04T00:13:28.315Z,6.7
2023-02-04T00:15:08.605Z,6.7
2023-02-04T00:16:48.914Z,6.7
2023-02-04T00:18:29.192Z,6.7
2023-02-04T00:20:09.471Z,6.7
2023-02-04T00:21:49.670Z,8.1
2023-02-04T00:23:29.899Z,8.1
2023-02-04T00:25:10.181Z,8.1
2023-02-04T00:26:50.364Z,8.1
2023-02-04T00:28:30.625Z,8.1
2023-02-04T00:30:10.922Z,8.1
2023-02-04T00:31:51.283Z,5.4
2023-02-04T00:33:31.380Z,5.4
2023-02-04T00:35:11.583Z,5.4
2023-02-04T00:36:51.841Z,5.4
2023-02-04T00:38:32.077Z,5.4
2023-02-04T00:40:12.377Z,5.4
2023-02-04T00:41:52.646Z,7.2
2023-02-04T00:43:32.861Z,7.2
2023-02-04T00:45:13.085Z,7.2
2023-02-04T00:46:53.418Z,7.2
2023-02-04T00:48:33.552Z,7.2
2023-02-04T00:50:13.727Z,7.2
2023-02-04T00:51:53.974Z,15.5
2023-02-04T00:53:34.176Z,15.5
2023-02-04T00:55:14.401Z,15.5
2023-02-04T00:56:54.628Z,15.5
2023-02-04T00:58:34.923Z,15.5
2023-02-04T01:00:15.135Z,15.5
2023-02-04T01:01:55.341Z,7
2023-02-04T01:03:35.586Z,7
2023-02-04T01:05:15.854Z,7
2023-02-04T01:06:56.173Z,7
2023-02-04T01:08:36.438Z,7
2023-02-04T01:10:16.723Z,7
2023-02-04T01:11:57.025Z,6
2023-02-04T01:13:37.231Z,6
2023-02-04T01:15:17.468Z,6
2023-02-04T01:16:57.679Z,6
2023-02-04T01:18:37.997Z,6
2023-02-04T01:20:18.191Z,6
2023-02-04T01:21:58.425Z,6
2023-02-04T01:23:38.653Z,8.5
2023-02-04T01:25:18.932Z,8.5
2023-02-04T01:26:59.239Z,8.5
2023-02-04T01:28:39.405Z,8.5
2023-02-04T01:30:19.625Z,8.5
2023-02-04T01:31:59.921Z,6.9
2023-02-04T01:33:40.184Z,6.9
2023-02-04T01:35:20.455Z,6.9
2023-02-04T01:37:00.717Z,6.9
2023-02-04T01:38:40.936Z,6.9
2023-02-04T01:40:21.276Z,6.9
2023-02-04T01:42:01.483Z,6.9
2023-02-04T01:43:41.781Z,10.15
2023-02-04T01:45:22.014Z,10.15
2023-02-04T01:47:02.213Z,10.15
2023-02-04T01:48:42.427Z,10.15
2023-02-04T01:50:22.668Z,10.15
2023-02-04T01:52:02.929Z,10.15
2023-02-04T01:53:43.272Z,10.6
2023-02-04T01:55:23.478Z,10.6
2023-02-04T01:57:03.787Z,10.6
2023-02-04T01:58:43.966Z,10.6
2023-02-04T02:00:24.177Z,10.6
2023-02-04T02:02:04.491Z,10.6
2023-02-04T02:03:44.696Z,16.4
2023-02-04T02:05:24.938Z,16.4
2023-02-04T02:07:05.171Z,16.4
2023-02-04T02:08:45.480Z,16.4
2023-02-04T02:10:25.802Z,16.4
2023-02-04T02:12:06.075Z,16.4
2023-02-04T02:13:46.325Z,12.6
2023-02-04T02:15:26.639Z,12.6
2023-02-04T02:17:06.826Z,12.6
2023-02-04T02:18:47.006Z,12.6
2023-02-04T02:20:27.292Z,12.6
2023-02-04T02:22:07.593Z,12.6
2023-02-04T02:23:47.810Z,12.1
2023-02-04T02:25:28.085Z,12.1
2023-02-04T02:27:08.430Z,12.1
2023-02-04T02:28:48.562Z,12.1
2023-02-04T02:30:28.963Z,12.1
2023-02-04T02:32:09.126Z,12.1
2023-02-04T02:33:49.319Z,9.2
2023-02-04T02:35:29.668Z,9.2
2023-02-04T02:37:09.887Z,9.2
2023-02-04T02:38:50.127Z,9.2
2023-02-04T02:40:30.785Z,9.2
2023-02-04T02:42:10.639Z,9.2
2023-02-04T02:43:50.830Z,6.8
2023-02-04T02:45:31.030Z,6.8
2023-02-04T02:47:11.237Z,6.8
2023-02-04T02:48:51.578Z,6.8
2023-02-04T02:50:32.193Z,6.8
2023-02-04T02:52:12.108Z,6.8
2023-02-04T02:53:52.406Z,6.5
2023-02-04T02:55:32.574Z,6.5
2023-02-04T02:57:12.846Z,6.5
2023-02-04T02:58:53.033Z,6.5
2023-02-04T03:00:33.635Z,6.5
2023-02-04T03:02:13.740Z,6.5
2023-02-04T03:03:53.844Z,9.9
2023-02-04T03:05:34.201Z,9.9
2023-02-04T03:07:14.507Z,9.9
2023-02-04T03:08:54.736Z,9.9
2023-02-04T03:10:35.034Z,9.9
2023-02-04T03:12:15.276Z,9.9
2023-02-04T03:13:55.522Z,4.9
2023-02-04T03:15:35.785Z,4.9
2023-02-04T03:17:16.024Z,4.9
2023-02-04T03:18:56.230Z,4.9
2023-02-04T03:20:36.484Z,4.9
2023-02-04T03:22:16.717Z,4.9
2023-02-04T03:23:56.905Z,2.05
2023-02-04T03:25:37.131Z,2.05
2023-02-04T03:27:17.411Z,2.05
2023-02-04T03:28:57.667Z,2.05
2023-02-04T03:30:38.138Z,2.05
2023-02-04T03:32:18.163Z,2.05
2023-02-04T03:33:58.345Z,6.7
2023-02-04T03:35:38.626Z,6.7
2023-02-04T03:37:18.844Z,6.7
2023-02-04T03:38:59.083Z,6.7
2023-02-04T03:40:39.323Z,6.7
2023-02-04T03:42:19.609Z,6.7
2023-02-04T03:43:59.929Z,5.6
2023-02-04T03:45:45.248Z,5.6
2023-02-04T03:47:20.419Z,5.6
2023-02-04T03:49:00.701Z,5.6
2023-02-04T03:50:40.907Z,5.6
2023-02-04T03:52:21.083Z,5.6
2023-02-04T03:54:01.368Z,7.8
2023-02-04T03:55:41.544Z,7.8
2023-02-04T03:57:21.773Z,7.8
2023-02-04T03:59:02.091Z,7.8
2023-02-04T04:00:42.325Z,7.8
2023-02-04T04:02:22.613Z,7.8
2023-02-04T04:04:02.855Z,1.2
2023-02-04T04:05:43.204Z,1.2
2023-02-04T04:07:23.467Z,1.2
2023-02-04T04:09:03.720Z,1.2
2023-02-04T04:10:43.985Z,1.2
2023-02-04T04:12:24.224Z,1.2
2023-02-04T04:14:04.429Z,2.6
2023-02-04T04:15:44.752Z,2.6
2023-02-04T04:17:24.911Z,2.6
2023-02-04T04:19:05.077Z,2.6
2023-02-04T04:20:45.283Z,2.6
2023-02-04T04:22:25.510Z,2.6
2023-02-04T04:24:05.791Z,4.15
2023-02-04T04:25:46.023Z,4.15
2023-02-04T04:27:26.300Z,4.15
2023-02-04T04:29:06.665Z,4.15
2023-02-04T04:30:46.880Z,4.15
2023-02-04T04:32:27.142Z,4.15
2023-02-04T04:34:07.465Z,8.65
2023-02-04T04:35:47.691Z,8.65
2023-02-04T04:37:27.997Z,8.65
2023-02-04T04:39:08.365Z,8.65
2023-02-04T04:40:48.522Z,8.65
2023-02-04T04:42:28.778Z,8.65
2023-02-04T04:44:08.976Z,1.3
2023-02-04T04:45:49.168Z,1.3
2023-02-04T04:47:29.486Z,1.3
2023-02-04T04:49:09.791Z,1.3
2023-02-04T04:50:50.090Z,1.3
2023-02-04T04:52:30.321Z,1.3
2023-02-04T04:54:10.582Z,3.5
2023-02-04T04:55:50.788Z,3.5
2023-02-04T04:57:31.087Z,3.5
2023-02-04T04:59:11.337Z,3.5
2023-02-04T05:00:51.695Z,3.5
2023-02-04T05:02:31.910Z,3.5
2023-02-04T05:04:12.178Z,3.5
2023-02-04T05:05:52.458Z,1.55
2023-02-04T05:07:32.781Z,1.55
2023-02-04T05:09:13.039Z,1.55
2023-02-04T05:10:53.269Z,1.55
2023-02-04T05:12:33.478Z,1.55
2023-02-04T05:14:13.701Z,1.55
2023-02-04T05:15:54.032Z,1.25
2023-02-04T05:17:34.311Z,1.25
2023-02-04T05:19:14.545Z,1.25
2023-02-04T05:21:01.965Z,1.25
2023-02-04T05:22:47.030Z,1.25
2023-02-04T05:24:27.346Z,1.25
2023-02-04T05:26:07.686Z,2.4
2023-02-04T05:27:47.905Z,2.4
2023-02-04T05:29:28.161Z,2.4
2023-02-04T05:31:08.570Z,2.4
2023-02-04T05:32:48.793Z,2.4
2023-02-04T05:34:29.045Z,1.6
2023-02-04T05:36:09.322Z,1.6
2023-02-04T05:37:49.619Z,1.6
2023-02-04T05:39:29.811Z,1.6
2023-02-04T05:41:10.061Z,1.6
2023-02-04T05:42:50.292Z,1.6
2023-02-04T05:44:30.541Z,1.6
2023-02-04T05:46:10.840Z,1.5
2023-02-04T05:47:51.048Z,1.5
2023-02-04T05:49:31.250Z,1.5
2023-02-04T05:51:11.445Z,1.5
2023-02-04T05:52:51.672Z,1.5
2023-02-04T05:54:32.010Z,1.5
2023-02-04T05:56:12.266Z,1.9
2023-02-04T05:57:52.557Z,1.9
2023-02-04T05:59:32.955Z,1.9
2023-02-04T06:01:13.215Z,1.9
2023-02-04T06:02:53.592Z,1.9
2023-02-04T06:04:33.823Z,1.9
2023-02-04T06:06:14.027Z,2.5
2023-02-04T06:07:54.277Z,2.5
2023-02-04T06:09:34.583Z,2.5
2023-02-04T06:11:14.844Z,2.5
2023-02-04T06:12:55.036Z,2.5
2023-02-04T06:16:15.603Z,0.8
2023-02-04T06:17:55.761Z,0.8
2023-02-04T06:19:35.977Z,0.8
2023-02-04T06:21:16.191Z,0.8
2023-02-04T06:22:56.489Z,0.8
2023-02-04T06:24:36.704Z,0.8
2023-02-04T06:26:16.936Z,1.6
2023-02-04T06:27:57.198Z,1.6
2023-02-04T06:29:37.440Z,1.6
2023-02-04T06:31:17.868Z,1.6
2023-02-04T06:32:58.170Z,1.6
2023-02-04T06:34:38.405Z,1.6
2023-02-04T06:36:18.626Z,1.1
2023-02-04T06:37:58.904Z,1.1
2023-02-04T06:39:39.135Z,1.1
2023-02-04T06:41:19.379Z,1.1
2023-02-04T06:42:59.696Z,1.1
2023-02-04T06:44:39.903Z,1.1
2023-02-04T06:46:20.263Z,0.6
2023-02-04T06:48:00.460Z,0.6
2023-02-04T06:49:40.731Z,0.6
2023-02-04T06:51:20.960Z,0.6
2023-02-04T06:53:01.220Z,0.6
2023-02-04T06:54:41.611Z,0.6
2023-02-04T06:56:21.878Z,1.7
2023-02-04T06:58:02.155Z,1.7
2023-02-04T06:59:42.369Z,1.7
2023-02-04T07:01:22.646Z,1.7
2023-02-04T07:03:05.991Z,1.7
2023-02-04T07:04:43.296Z,1.7
2023-02-04T07:06:23.634Z,1.05
2023-02-04T07:08:04.000Z,1.05
2023-02-04T07:09:44.239Z,1.05
2023-02-04T07:11:24.568Z,1.05
2023-02-04T07:13:04.893Z,1.05
2023-02-04T07:14:45.149Z,1.05
2023-02-04T07:16:25.396Z,2.5
2023-02-04T07:18:05.685Z,2.5
2023-02-04T07:19:46.030Z,2.5
2023-02-04T07:21:26.231Z,2.5
2023-02-04T07:23:06.524Z,2.5
2023-02-04T07:24:46.825Z,2.5
2023-02-04T07:26:27.027Z,1.2
2023-02-04T07:28:07.272Z,1.2
2023-02-04T07:29:47.474Z,1.2
2023-02-04T07:31:27.884Z,1.2
2023-02-04T07:33:07.976Z,1.2
2023-02-04T07:34:48.161Z,1.2
2023-02-04T07:36:28.443Z,1.55
2023-02-04T07:38:08.755Z,1.55
2023-02-04T07:39:49.006Z,1.55
2023-02-04T07:41:29.310Z,1.55
2023-02-04T07:43:09.665Z,1.55
2023-02-04T07:44:49.881Z,1.55
2023-02-04T07:46:30.212Z,2.7
2023-02-04T07:48:16.991Z,2.7
2023-02-04T07:49:57.302Z,2.7
2023-02-04T07:51:37.575Z,2.7
2023-02-04T07:53:17.945Z,2.7
2023-02-04T07:54:58.153Z,2.7
2023-02-04T07:56:38.375Z,1.6
2023-02-04T07:58:18.627Z,1.6
2023-02-04T07:59:58.886Z,1.6
2023-02-04T08:01:39.151Z,1.6
2023-02-04T08:03:19.365Z,1.6
2023-02-04T08:04:59.640Z,1.6
2023-02-04T08:06:39.911Z,1.8
2023-02-04T08:08:20.173Z,1.8
2023-02-04T08:10:00.447Z,1.8
2023-02-04T08:11:40.740Z,1.8
2023-02-04T08:13:20.974Z,1.8
2023-02-04T08:15:01.230Z,1.8
2023-02-04T08:16:41.505Z,2.5
2023-02-04T08:18:21.779Z,2.5
2023-02-04T08:20:02.140Z,2.5
2023-02-04T08:21:42.318Z,2.5
2023-02-04T08:23:27.909Z,2.5
2023-02-04T08:25:08.183Z,2.5
2023-02-04T08:26:49.498Z,2.5
2023-02-04T08:28:28.816Z,2.5
2023-02-04T08:30:09.144Z,2.5
2023-02-04T08:31:49.482Z,2.5
2023-02-04T08:33:29.647Z,2.5
2023-02-04T08:35:09.945Z,2.5
2023-02-04T08:36:50.161Z,2.2
2023-02-04T08:38:30.449Z,2.2
2023-02-04T08:40:10.754Z,2.2
2023-02-04T08:41:50.989Z,2.2
2023-02-04T08:43:31.251Z,2.2
2023-02-04T08:45:11.631Z,2.2
2023-02-04T08:46:52.018Z,1.9
2023-02-04T08:48:32.350Z,1.9
2023-02-04T08:50:12.557Z,1.9
2023-02-04T08:51:52.765Z,1.9
2023-02-04T08:53:33.012Z,1.9
2023-02-04T08:55:13.359Z,1.9
2023-02-04T08:56:53.704Z,2.5
2023-02-04T08:58:34.024Z,2.5
2023-02-04T09:00:14.309Z,2.5
2023-02-04T09:01:54.591Z,2.5
2023-02-04T09:03:34.840Z,2.5
2023-02-04T09:05:15.167Z,2.5
2023-02-04T09:06:55.449Z,3.9
2023-02-04T09:08:35.703Z,3.9
2023-02-04T09:10:16.023Z,3.9
2023-02-04T09:11:56.231Z,3.9
2023-02-04T09:13:36.510Z,3.9
2023-02-04T09:15:16.698Z,3.9
2023-02-04T09:16:56.903Z,1.3
2023-02-04T09:20:17.408Z,1.3
2023-02-04T09:21:57.696Z,1.3
2023-02-04T09:23:37.967Z,1.3
2023-02-04T09:25:18.198Z,1.3
2023-02-04T09:26:58.478Z,1.3
2023-02-04T09:28:38.732Z,2.65
2023-02-04T09:30:18.996Z,2.65
2023-02-04T09:31:59.354Z,2.65
2023-02-04T09:33:39.550Z,2.65
2023-02-04T09:35:19.819Z,2.65
2023-02-04T09:37:00.090Z,2.3
2023-02-04T09:38:40.333Z,2.3
2023-02-04T09:40:20.605Z,2.3
2023-02-04T09:42:00.914Z,2.3
2023-02-04T09:43:41.198Z,2.3
2023-02-04T09:45:21.474Z,2.3
2023-02-04T09:47:01.789Z,2.3
2023-02-04T09:48:42.067Z,1.6
2023-02-04T09:50:22.400Z,1.6
2023-02-04T09:52:02.605Z,1.6
2023-02-04T09:53:42.892Z,1.6
2023-02-04T09:55:23.102Z,1.6
2023-02-04T09:57:03.326Z,1.6
2023-02-04T09:58:43.614Z,2.3
2023-02-04T10:00:23.890Z,2.3
2023-02-04T10:02:04.147Z,2.3
2023-02-04T10:03:44.422Z,2.3
2023-02-04T10:05:31.202Z,2.3
2023-02-04T10:07:11.551Z,2.3
2023-02-04T10:08:51.883Z,6.1
2023-02-04T10:10:32.480Z,6.1
2023-02-04T10:12:12.514Z,6.1
2023-02-04T10:13:52.841Z,6.1
2023-02-04T10:15:33.161Z,6.1
2023-02-04T10:17:19.034Z,6.1
2023-02-04T10:18:59.349Z,33.3
2023-02-04T10:20:45.493Z,33.3
2023-02-04T10:22:25.744Z,33.3
2023-02-04T10:24:06.047Z,33.3
2023-02-04T10:25:46.311Z,33.3
2023-02-04T10:27:26.525Z,33.3
2023-02-04T10:29:08.846Z,1.8
2023-02-04T10:30:47.382Z,1.8
2023-02-04T10:32:27.513Z,1.8
2023-02-04T10:34:07.773Z,1.8
2023-02-04T10:35:48.122Z,1.8
2023-02-04T10:37:28.443Z,1.8
2023-02-04T10:39:08.775Z,1.8
2023-02-04T10:40:48.999Z,1.8
2023-02-04T10:42:29.244Z,1.8
2023-02-04T10:44:09.533Z,1.8
2023-02-04T10:45:49.855Z,1.8
2023-02-04T10:47:30.136Z,1.8
2023-02-04T10:49:10.400Z,1.8
2023-02-04T10:50:50.655Z,1.8
2023-02-04T10:52:30.909Z,1.8
2023-02-04T10:54:11.249Z,1.8
2023-02-04T10:55:51.583Z,1.8
2023-02-04T10:57:31.893Z,1.8
2023-02-04T10:59:12.176Z,1.2
2023-02-04T11:00:52.500Z,1.2
2023-02-04T11:02:32.733Z,1.2
2023-02-04T11:04:13.046Z,1.2
2023-02-04T11:05:53.359Z,1.2
2023-02-04T11:07:33.643Z,1.2
2023-02-04T11:09:13.940Z,1.6
2023-02-04T11:10:54.224Z,1.6
2023-02-04T11:12:34.522Z,1.6
2023-02-04T11:14:14.867Z,1.6
2023-02-04T11:15:55.203Z,1.6
2023-02-04T11:17:35.470Z,1.6
2023-02-04T11:19:15.766Z,1.6
2023-02-04T11:20:56.087Z,1.6
2023-02-04T11:22:36.356Z,1.6
2023-02-04T11:24:16.662Z,1.6
2023-02-04T11:25:56.994Z,1.6
2023-02-04T11:27:37.361Z,1.6
2023-02-04T11:29:17.714Z,1.6
2023-02-04T11:30:58.081Z,1.6
2023-02-04T11:32:38.249Z,1.6
2023-02-04T11:34:18.495Z,1.6
2023-02-04T11:35:58.889Z,1.6
2023-02-04T11:37:39.305Z,1.6
2023-02-04T11:39:19.658Z,1.4
2023-02-04T11:40:59.966Z,1.4
2023-02-04T11:42:40.269Z,1.4
2023-02-04T11:44:20.487Z,1.4
2023-02-04T11:46:00.761Z,1.4
2023-02-04T11:47:41.102Z,1.4
2023-02-04T11:49:21.314Z,7
2023-02-04T11:51:01.603Z,7
2023-02-04T11:52:41.850Z,7
2023-02-04T11:54:22.094Z,7
2023-02-04T11:56:02.386Z,7
2023-02-04T11:57:42.715Z,7
2023-02-04T11:59:28.829Z,2.5
2023-02-04T12:01:09.087Z,2.5
2023-02-04T12:02:49.385Z,2.5
2023-02-04T12:04:29.624Z,2.5
2023-02-04T12:06:10.010Z,2.5
2023-02-04T12:07:50.322Z,2.5
2023-02-04T12:09:30.668Z,1.5
2023-02-04T12:11:11.005Z,1.5
2023-02-04T12:12:51.280Z,1.5
2023-02-04T12:14:31.653Z,1.5
2023-02-04T12:16:12.006Z,1.5
2023-02-04T12:17:52.288Z,1.5
2023-02-04T12:19:32.617Z,1.2
2023-02-04T12:21:12.885Z,1.2
2023-02-04T12:22:53.198Z,1.2
2023-02-04T12:24:33.556Z,1.2
2023-02-04T12:26:13.925Z,1.2
2023-02-04T12:27:54.264Z,1.2
2023-02-04T12:29:34.471Z,0.9
2023-02-04T12:31:14.883Z,0.9
2023-02-04T12:32:55.029Z,0.9
2023-02-04T12:34:35.377Z,0.9
2023-02-04T12:36:15.763Z,0.9
2023-02-04T12:37:55.918Z,0.9
2023-02-04T12:39:36.304Z,3.2
2023-02-04T12:41:16.628Z,3.2
2023-02-04T12:42:56.957Z,3.2
2023-02-04T12:44:37.252Z,3.2
2023-02-04T12:46:17.738Z,3.2
2023-02-04T12:47:57.940Z,3.2
2023-02-04T12:49:38.169Z,0.8
2023-02-04T12:51:18.427Z,0.8
2023-02-04T12:52:58.707Z,0.8
2023-02-04T12:54:38.995Z,0.8
2023-02-04T12:56:19.411Z,0.8
2023-02-04T12:57:59.731Z,0.8
2023-02-04T12:59:40.070Z,2.7
2023-02-04T13:01:20.382Z,2.7
2023-02-04T13:03:00.700Z,2.7
2023-02-04T13:04:40.924Z,2.7
2023-02-04T13:06:21.238Z,2.7
2023-02-04T13:08:01.556Z,2.7
2023-02-04T13:09:41.886Z,0.8
2023-02-04T13:11:22.193Z,0.8
2023-02-04T13:13:04.549Z,0.8
2023-02-04T13:14:42.755Z,0.8
2023-02-04T13:16:23.178Z,0.8
2023-02-04T13:18:03.319Z,0.8
2023-02-04T13:19:43.632Z,2.4
2023-02-04T13:21:23.922Z,2.4
2023-02-04T13:23:04.237Z,2.4
2023-02-04T13:24:44.458Z,2.4
2023-02-04T13:26:24.808Z,2.4
2023-02-04T13:28:05.207Z,2.4
2023-02-04T13:29:45.518Z,0.7
2023-02-04T13:31:25.780Z,0.7
2023-02-04T13:33:05.990Z,0.7
2023-02-04T13:34:46.354Z,0.7
2023-02-04T13:36:26.669Z,0.7
2023-02-04T13:38:06.959Z,0.7
2023-02-04T13:39:47.217Z,1.9
2023-02-04T13:41:27.579Z,1.9
2023-02-04T13:43:07.828Z,1.9
2023-02-04T13:44:48.111Z,1.9
2023-02-04T13:46:28.444Z,1.9
2023-02-04T13:48:08.709Z,1.9
2023-02-04T13:49:49.030Z,0.5
2023-02-04T13:51:29.316Z,0.5
2023-02-04T13:53:09.585Z,0.5
2023-02-04T13:54:49.896Z,0.5
2023-02-04T13:56:30.346Z,0.5
2023-02-04T13:58:10.505Z,0.5
2023-02-04T13:59:50.799Z,0.5
2023-02-04T14:01:31.127Z,0.7
2023-02-04T14:03:11.463Z,0.7
2023-02-04T14:04:51.735Z,0.7
2023-02-04T14:06:32.048Z,0.7
2023-02-04T14:08:12.359Z,0.7
2023-02-04T14:09:52.636Z,0.7
2023-02-04T14:11:33.000Z,0.6
2023-02-04T14:13:13.252Z,0.6
2023-02-04T14:14:53.562Z,0.6
2023-02-04T14:16:35.255Z,0.6
2023-02-04T14:18:14.126Z,0.6
2023-02-04T14:19:54.454Z,0.6
2023-02-04T14:21:34.749Z,0.8
2023-02-04T14:23:15.088Z,0.8
2023-02-04T14:24:55.513Z,0.8
2023-02-04T14:26:35.779Z,0.8
2023-02-04T14:28:21.979Z,0.8
2023-02-04T14:30:02.284Z,0.8
2023-02-04T14:31:42.579Z,1.4
2023-02-04T14:33:22.832Z,1.4
2023-02-04T14:35:03.179Z,1.4
2023-02-04T14:36:43.451Z,1.4
2023-02-04T14:38:23.752Z,1.4
2023-02-04T14:40:04.038Z,1.4
2023-02-04T14:41:44.381Z,0.9
2023-02-04T14:43:24.639Z,0.9
2023-02-04T14:45:04.911Z,0.9
2023-02-04T14:46:45.168Z,0.9
2023-02-04T14:48:25.559Z,0.9
2023-02-04T14:50:05.859Z,0.9
2023-02-04T14:51:46.078Z,1.8
2023-02-04T14:53:26.338Z,1.8
2023-02-04T14:55:06.686Z,1.8
2023-02-04T14:56:47.008Z,1.8
2023-02-04T14:58:28.015Z,1.8
2023-02-04T15:00:07.589Z,1.8
2023-02-04T15:01:47.881Z,0.9
2023-02-04T15:03:28.228Z,0.9
2023-02-04T15:05:08.622Z,0.9
2023-02-04T15:06:49.025Z,0.9
2023-02-04T15:08:29.313Z,0.9
2023-02-04T15:10:09.608Z,0.9
2023-02-04T15:11:49.935Z,1.1
2023-02-04T15:13:30.198Z,1.1
2023-02-04T15:15:10.536Z,1.1
2023-02-04T15:16:50.935Z,1.1
2023-02-04T15:18:31.109Z,1.1
2023-02-04T15:20:11.442Z,1.1
2023-02-04T15:21:51.679Z,2
2023-02-04T15:23:32.003Z,2
2023-02-04T15:25:12.311Z,2
2023-02-04T15:26:52.583Z,2
2023-02-04T15:28:32.867Z,2
2023-02-04T15:30:13.190Z,2
2023-02-04T15:31:53.560Z,0.6
2023-02-04T15:33:33.774Z,0.6
2023-02-04T15:35:14.061Z,0.6
2023-02-04T15:36:54.344Z,0.6
2023-02-04T15:38:34.621Z,0.6
2023-02-04T15:40:14.928Z,0.6
2023-02-04T15:41:55.242Z,0.7
2023-02-04T15:43:35.526Z,0.7
2023-02-04T15:45:15.799Z,0.7
2023-02-04T15:46:56.116Z,0.7
2023-02-04T15:48:36.504Z,0.7
2023-02-04T15:50:16.695Z,0.7
2023-02-04T15:51:57.002Z,1.5
2023-02-04T15:53:37.298Z,1.5
2023-02-04T15:55:17.598Z,1.5
2023-02-04T15:56:57.898Z,1.5
2023-02-04T15:58:38.265Z,1.5
2023-02-04T16:00:24.165Z,1.5
2023-02-04T16:02:04.432Z,1.5
2023-02-04T16:03:44.875Z,1.5
2023-02-04T16:05:25.069Z,1.5
2023-02-04T16:07:06.443Z,1.5
2023-02-04T16:08:45.815Z,1.5
2023-02-04T16:12:19.527Z,1.2
2023-02-04T16:13:59.728Z,1.2
2023-02-04T16:15:40.050Z,1.2
2023-02-04T16:19:21.740Z,1.2
2023-02-04T16:22:02.861Z,1.3
2023-02-04T16:26:20.300Z,1.3
2023-02-04T16:28:00.634Z,1.3
2023-02-04T16:29:40.861Z,1.3
2023-02-04T16:31:21.312Z,1.3
2023-02-04T16:33:01.600Z,1.2
2023-02-04T16:34:41.987Z,1.2
2023-02-04T16:36:22.456Z,1.2
2023-02-04T16:38:02.803Z,1.2
2023-02-04T16:43:12.018Z,2.5
2023-02-04T16:44:52.232Z,2.5
2023-02-04T16:47:54.691Z,2.5
2023-02-04T16:49:34.731Z,2.5
2023-02-04T16:51:15.033Z,2.5
2023-02-04T16:52:55.117Z,1.3
2023-02-04T16:54:35.426Z,1.3
2023-02-04T16:56:15.550Z,1.3
2023-02-04T16:57:55.746Z,1.3
2023-02-04T16:59:36.065Z,1.3
2023-02-04T17:01:16.403Z,1.3
2023-02-04T17:02:56.489Z,5.4
2023-02-04T17:04:36.592Z,5.4
2023-02-04T17:06:16.869Z,5.4
2023-02-04T17:07:57.179Z,5.4
2023-02-04T17:09:37.403Z,5.4
2023-02-04T17:11:17.549Z,5.4
2023-02-04T17:12:57.687Z,5.3
2023-02-04T17:14:37.795Z,5.3
2023-02-04T17:16:17.930Z,5.3
2023-02-04T17:17:58.150Z,5.3
2023-02-04T17:19:38.770Z,5.3
2023-02-04T17:21:18.603Z,5.3
2023-02-04T17:22:58.750Z,7.35
2023-02-04T17:24:39.052Z,7.35
2023-02-04T17:26:19.035Z,7.35
2023-02-04T17:27:59.448Z,7.35
2023-02-04T17:29:39.511Z,7.35
2023-02-04T17:31:19.730Z,7.35
2023-02-04T17:32:59.907Z,4
2023-02-04T17:34:40.187Z,4
2023-02-04T17:36:20.515Z,4
2023-02-04T17:38:00.863Z,4
2023-02-04T17:39:41.341Z,4
2023-02-04T17:41:21.628Z,4
2023-02-04T17:43:01.895Z,3.5
2023-02-04T17:44:42.245Z,3.5
2023-02-04T17:46:22.670Z,3.5
2023-02-04T17:48:02.936Z,3.5
2023-02-04T17:49:49.082Z,3.5
2023-02-04T17:51:29.485Z,3.5
2023-02-04T17:53:09.800Z,6.3
2023-02-04T17:54:50.118Z,6.3
2023-02-04T17:56:36.422Z,6.3
2023-02-04T17:58:16.790Z,6.3
2023-02-04T17:59:57.047Z,6.3
2023-02-04T18:01:37.475Z,6.3
2023-02-04T18:03:17.687Z,3.9
2023-02-04T18:05:02.626Z,3.9
2023-02-04T18:06:42.914Z,3.9
2023-02-04T18:08:23.334Z,3.9
2023-02-04T18:10:03.658Z,3.9
2023-02-04T18:11:44.044Z,3.9
2023-02-04T18:13:24.458Z,5.3
2023-02-04T18:15:04.754Z,5.3
2023-02-04T18:16:45.262Z,5.3
2023-02-04T18:18:25.538Z,5.3
2023-02-04T18:20:05.912Z,5.3
2023-02-04T18:21:46.335Z,5.3
2023-02-04T18:23:26.610Z,7.75
2023-02-04T18:25:07.030Z,7.75
2023-02-04T18:26:47.357Z,7.75
2023-02-04T18:28:27.732Z,7.75
2023-02-04T18:30:08.068Z,7.75
2023-02-04T18:31:48.345Z,7.75
2023-02-04T18:33:28.683Z,3.4
2023-02-04T18:35:08.988Z,3.4
2023-02-04T18:36:49.369Z,3.4
2023-02-04T18:38:29.694Z,3.4
2023-02-04T18:40:10.181Z,3.4
2023-02-04T18:41:50.549Z,3.4
2023-02-04T18:43:30.905Z,3.5
2023-02-04T18:45:11.194Z,3.5
2023-02-04T18:46:51.520Z,3.5
2023-02-04T18:48:31.837Z,3.5
2023-02-04T18:50:12.742Z,3.5
2023-02-04T18:51:52.437Z,3.5
2023-02-04T18:53:32.704Z,2.6
2023-02-04T18:55:13.522Z,2.6
2023-02-04T18:56:53.321Z,2.6
2023-02-04T18:58:33.599Z,2.6
2023-02-04T19:00:13.903Z,2.6
2023-02-04T19:01:54.203Z,2.6
2023-02-04T19:03:42.318Z,3.1
2023-02-04T19:05:26.518Z,3.1
2023-02-04T19:07:06.808Z,3.1
2023-02-04T19:08:47.192Z,3.1
2023-02-04T19:10:34.004Z,3.1
2023-02-04T19:12:14.380Z,3.1
2023-02-04T19:13:54.311Z,3.9
2023-02-04T19:15:39.687Z,3.9
2023-02-04T19:17:20.020Z,3.9
2023-02-04T19:19:00.336Z,3.9
2023-02-04T19:20:40.713Z,3.9
2023-02-04T19:22:21.073Z,3.9
2023-02-04T19:24:14.198Z,11.9
2023-02-04T19:25:54.520Z,11.9
2023-02-04T19:27:34.839Z,11.9
2023-02-04T19:29:21.256Z,11.9
2023-02-04T19:31:01.716Z,11.9
2023-02-04T19:32:41.987Z,11.9
2023-02-04T19:34:22.326Z,9.6
2023-02-04T19:36:02.659Z,9.6
2023-02-04T19:37:42.903Z,9.6
2023-02-04T19:39:23.249Z,9.6
2023-02-04T19:41:03.679Z,9.6
2023-02-04T19:42:43.975Z,9.6
2023-02-04T19:44:24.360Z,7.9
2023-02-04T19:46:04.762Z,7.9
2023-02-04T19:47:45.174Z,7.9
2023-02-04T19:49:25.640Z,7.9
2023-02-04T19:51:06.001Z,7.9
2023-02-04T19:52:46.250Z,7.9
2023-02-04T19:54:26.565Z,5.6
2023-02-04T19:56:06.862Z,5.6
2023-02-04T19:57:47.286Z,5.6
2023-02-04T19:59:27.613Z,5.6
2023-02-04T20:01:08.095Z,5.6
2023-02-04T20:02:48.505Z,5.6
2023-02-04T20:04:28.836Z,7
2023-02-04T20:06:09.142Z,7
2023-02-04T20:07:49.637Z,7
2023-02-04T20:09:30.696Z,7
2023-02-04T20:11:10.393Z,7
2023-02-04T20:12:50.771Z,7
2023-02-04T20:14:31.076Z,6.5
2023-02-04T20:16:11.535Z,6.5
2023-02-04T20:17:51.941Z,6.5
2023-02-04T20:19:32.129Z,6.5
2023-02-04T20:21:12.475Z,6.5
2023-02-04T20:22:52.807Z,6.5
2023-02-04T20:24:33.113Z,7.2
2023-02-04T20:26:13.405Z,7.2
2023-02-04T20:27:53.722Z,7.2
2023-02-04T20:29:33.968Z,7.2
2023-02-04T20:31:14.322Z,7.2
2023-02-04T20:32:54.581Z,7.2
2023-02-04T20:34:34.859Z,6.3
2023-02-04T20:36:15.282Z,6.3
2023-02-04T20:37:55.502Z,6.3
2023-02-04T20:39:35.849Z,6.3
2023-02-04T20:41:16.126Z,6.3
2023-02-04T20:42:56.412Z,6.3
2023-02-04T20:44:36.714Z,5.4
2023-02-04T20:46:17.094Z,5.4
2023-02-04T20:47:57.452Z,5.4
2023-02-04T20:49:37.822Z,5.4
2023-02-04T20:51:18.235Z,5.4
2023-02-04T20:52:58.510Z,5.4
2023-02-04T20:54:38.913Z,5.1
2023-02-04T20:56:19.287Z,5.1
2023-02-04T20:57:59.586Z,5.1
2023-02-04T20:59:39.898Z,5.1
2023-02-04T21:01:20.370Z,5.1
2023-02-04T21:03:00.601Z,5.1
2023-02-04T21:04:41.067Z,5.2
2023-02-04T21:06:21.461Z,5.2
2023-02-04T21:08:01.888Z,5.2
2023-02-04T21:09:42.230Z,5.2
2023-02-04T21:11:22.634Z,5.2
2023-02-04T21:13:03.055Z,5.2
2023-02-04T21:14:43.474Z,5.2
2023-02-04T21:16:23.685Z,5.2
2023-02-04T21:18:03.996Z,5.2
2023-02-04T21:19:44.352Z,5.2
2023-02-04T21:21:24.749Z,5.2
2023-02-04T21:23:05.196Z,5.2
2023-02-04T21:24:45.618Z,4.7
2023-02-04T21:26:25.906Z,4.7
2023-02-04T21:28:06.359Z,4.7
2023-02-04T21:29:46.741Z,4.7
2023-02-04T21:31:27.113Z,4.7
2023-02-04T21:33:07.474Z,4.7
2023-02-04T21:34:47.776Z,3.6
2023-02-04T21:36:28.093Z,3.6
2023-02-04T21:38:08.485Z,3.6
2023-02-04T21:39:48.668Z,3.6
2023-02-04T21:41:28.976Z,3.6
2023-02-04T21:43:09.298Z,3.6
2023-02-04T21:44:49.611Z,4.1
2023-02-04T21:46:30.009Z,4.1
2023-02-04T21:48:10.225Z,4.1
2023-02-04T21:49:50.515Z,4.1
2023-02-04T21:51:30.798Z,4.1
2023-02-04T21:53:11.094Z,4.1
2023-02-04T21:54:51.396Z,4.7
2023-02-04T21:56:31.774Z,4.7
2023-02-04T21:58:12.154Z,4.7
2023-02-04T21:59:52.545Z,4.7
2023-02-04T22:01:32.936Z,4.7
2023-02-04T22:03:13.189Z,4.7
2023-02-04T22:04:53.568Z,4.9
2023-02-04T22:06:33.862Z,4.9
2023-02-04T22:08:14.234Z,4.9
2023-02-04T22:09:54.565Z,4.9
2023-02-04T22:11:34.885Z,4.9
2023-02-04T22:13:15.224Z,4.9
2023-02-04T22:14:55.727Z,4.9
2023-02-04T22:16:36.028Z,5.1
2023-02-04T22:18:16.439Z,5.1
2023-02-04T22:19:56.826Z,5.1
2023-02-04T22:21:37.068Z,5.1
2023-02-04T22:23:17.480Z,5.1
2023-02-04T22:24:57.806Z,4.5
2023-02-04T22:26:38.187Z,4.5
2023-02-04T22:28:18.592Z,4.5
2023-02-04T22:29:58.967Z,4.5
2023-02-04T22:31:39.334Z,4.5
2023-02-04T22:33:19.631Z,4.5
2023-02-04T22:34:59.895Z,4.5
2023-02-04T22:36:40.293Z,8.3
2023-02-04T22:38:20.619Z,8.3
2023-02-04T22:40:01.022Z,8.3
2023-02-04T22:41:41.325Z,8.3
2023-02-04T22:43:21.715Z,8.3
2023-02-04T22:45:02.181Z,8.3
2023-02-04T22:46:42.565Z,6.2
2023-02-04T22:48:22.793Z,6.2
2023-02-04T22:50:03.137Z,6.2
2023-02-04T22:51:43.418Z,6.2
2023-02-04T22:53:23.825Z,6.2
2023-02-04T22:55:04.015Z,6.2
2023-02-04T22:56:44.285Z,4.8
2023-02-04T22:58:24.588Z,4.8
2023-02-04T23:00:04.895Z,4.8
2023-02-04T23:01:45.189Z,0
2023-02-04T23:03:25.431Z,0
2023-02-04T23:05:05.733Z,0
2023-02-04T23:06:46.070Z,0
2023-02-04T23:08:26.335Z,0
2023-02-04T23:10:06.662Z,0
2023-02-04T23:11:46.974Z,6.1
2023-02-04T23:13:27.326Z,6.1
2023-02-04T23:15:07.569Z,6.1
2023-02-04T23:16:47.852Z,6.1